createdAt,value
2023-05-16T00:00:39.951Z,1002.59
2023-05-16T00:01:40.212Z,1002.64
2023-05-16T00:02:40.672Z,1002.65
2023-05-16T00:03:40.869Z,1002.67
2023-05-16T00:04:41.069Z,1002.62
2023-05-16T00:05:41.344Z,1002.68
2023-05-16T00:06:41.580Z,1002.66
2023-05-16T00:07:41.828Z,1002.63
2023-05-16T00:08:42.075Z,1002.66
2023-05-16T00:09:42.350Z,1002.71
2023-05-16T00:10:42.628Z,1002.71
2023-05-16T00:11:42.864Z,1002.73
2023-05-16T00:12:43.113Z,1002.70
2023-05-16T00:13:43.385Z,1002.70
2023-05-16T00:14:43.623Z,1002.74
2023-05-16T00:15:43.951Z,1002.75
2023-05-16T00:16:44.213Z,1002.76
2023-05-16T00:17:44.505Z,1002.78
2023-05-16T00:18:44.723Z,1002.78
2023-05-16T00:19:45.053Z,1002.78
2023-05-16T00:20:45.326Z,1002.76
2023-05-16T00:21:45.606Z,1002.78
2023-05-16T00:22:45.859Z,1002.75
2023-05-16T00:23:46.118Z,1002.77
2023-05-16T00:24:46.365Z,1002.82
2023-05-16T00:25:47.623Z,1002.75
2023-05-16T00:26:46.866Z,1002.76
2023-05-16T00:27:47.118Z,1002.72
2023-05-16T00:28:47.338Z,1002.78
2023-05-16T00:29:47.701Z,1002.76
2023-05-16T00:30:48.099Z,1002.77
2023-05-16T00:31:48.357Z,1002.77
2023-05-16T00:32:48.743Z,1002.78
2023-05-16T00:33:48.932Z,1002.80
2023-05-16T00:34:49.231Z,1002.80
2023-05-16T00:35:49.531Z,1002.78
2023-05-16T00:36:49.763Z,1002.80
2023-05-16T00:37:50.127Z,1002.83
2023-05-16T00:38:50.358Z,1002.81
2023-05-16T00:39:50.727Z,1002.83
2023-05-16T00:40:50.980Z,1002.82
2023-05-16T00:41:51.307Z,1002.87
2023-05-16T00:42:51.541Z,1002.82
2023-05-16T00:43:51.913Z,1002.87
2023-05-16T00:44:52.232Z,1002.86
2023-05-16T00:45:52.630Z,1002.90
2023-05-16T00:46:52.899Z,1002.90
2023-05-16T00:47:53.266Z,1002.87
2023-05-16T00:48:53.501Z,1002.86
2023-05-16T00:49:53.861Z,1002.92
2023-05-16T00:50:54.121Z,1002.94
2023-05-16T00:51:54.350Z,1002.87
2023-05-16T00:52:54.701Z,1002.89
2023-05-16T00:53:55.070Z,1002.93
2023-05-16T00:54:55.306Z,1002.87
2023-05-16T00:55:55.661Z,1002.88
2023-05-16T00:56:55.894Z,1002.94
2023-05-16T00:57:56.263Z,1002.94
2023-05-16T00:58:56.504Z,1002.92
2023-05-16T00:59:56.767Z,1002.99
2023-05-16T01:00:57.012Z,1003.02
2023-05-16T01:01:57.381Z,1003.03
2023-05-16T01:02:57.726Z,1003.10
2023-05-16T01:03:58.112Z,1003.07
2023-05-16T01:04:58.169Z,1002.97
2023-05-16T01:05:58.506Z,1003.06
2023-05-16T01:06:58.816Z,1002.99
2023-05-16T01:07:59.069Z,1003.04
2023-05-16T01:08:59.302Z,1003.02
2023-05-16T01:09:59.676Z,1003.01
2023-05-16T01:10:59.940Z,1003.08
2023-05-16T01:12:00.183Z,1003.11
2023-05-16T01:13:00.416Z,1003.08
2023-05-16T01:14:00.760Z,1003.09
2023-05-16T01:15:00.994Z,1003.12
2023-05-16T01:16:01.378Z,1003.20
2023-05-16T01:17:01.592Z,1003.20
2023-05-16T01:18:02.079Z,1003.15
2023-05-16T01:19:02.243Z,1003.16
2023-05-16T01:20:02.458Z,1003.16
2023-05-16T01:21:02.830Z,1003.29
2023-05-16T01:22:03.062Z,1003.30
2023-05-16T01:23:03.304Z,1003.29
2023-05-16T01:24:03.672Z,1003.24
2023-05-16T01:25:03.914Z,1003.28
2023-05-16T01:26:04.185Z,1003.29
2023-05-16T01:27:04.459Z,1003.34
2023-05-16T01:28:04.695Z,1003.39
2023-05-16T01:29:04.948Z,1003.34
2023-05-16T01:30:05.301Z,1003.37
2023-05-16T01:31:05.596Z,1003.35
2023-05-16T01:32:05.865Z,1003.38
2023-05-16T01:33:06.243Z,1003.39
2023-05-16T01:34:06.371Z,1003.43
2023-05-16T01:35:06.730Z,1003.43
2023-05-16T01:36:06.982Z,1003.49
2023-05-16T01:37:07.331Z,1003.45
2023-05-16T01:38:07.673Z,1003.44
2023-05-16T01:39:08.038Z,1003.54
2023-05-16T01:40:08.276Z,1003.52
2023-05-16T01:41:08.644Z,1003.50
2023-05-16T01:42:08.884Z,1003.51
2023-05-16T01:43:09.252Z,1003.55
2023-05-16T01:44:09.487Z,1003.57
2023-05-16T01:45:09.851Z,1003.58
2023-05-16T01:46:10.100Z,1003.56
2023-05-16T01:47:10.605Z,1003.59
2023-05-16T01:48:10.853Z,1003.57
2023-05-16T01:49:11.118Z,1003.58
2023-05-16T01:50:11.370Z,1003.61
2023-05-16T01:51:11.744Z,1003.63
2023-05-16T01:52:11.974Z,1003.62
2023-05-16T01:53:12.336Z,1003.62
2023-05-16T01:54:12.686Z,1003.62
2023-05-16T01:55:12.973Z,1003.71
2023-05-16T01:56:13.228Z,1003.69
2023-05-16T01:57:13.492Z,1003.77
2023-05-16T01:58:13.759Z,1003.80
2023-05-16T01:59:14.113Z,1003.83
2023-05-16T02:00:14.478Z,1003.83
2023-05-16T02:01:14.779Z,1003.86
2023-05-16T02:02:15.022Z,1003.93
2023-05-16T02:03:15.598Z,1003.83
2023-05-16T02:04:15.820Z,1003.98
2023-05-16T02:05:15.930Z,1003.98
2023-05-16T02:06:16.349Z,1003.91
2023-05-16T02:07:16.580Z,1003.95
2023-05-16T02:08:16.832Z,1003.85
2023-05-16T02:09:17.192Z,1003.91
2023-05-16T02:10:18.378Z,1003.95
2023-05-16T02:11:17.803Z,1003.98
2023-05-16T02:12:18.082Z,1003.92
2023-05-16T02:13:18.430Z,1004.02
2023-05-16T02:14:18.684Z,1003.96
2023-05-16T02:15:19.070Z,1003.99
2023-05-16T02:16:19.357Z,1004.02
2023-05-16T02:17:19.654Z,1004.01
2023-05-16T02:18:19.895Z,1004.04
2023-05-16T02:19:20.393Z,1003.98
2023-05-16T02:20:20.577Z,1004.04
2023-05-16T02:21:20.959Z,1004.04
2023-05-16T02:22:21.213Z,1004.09
2023-05-16T02:23:21.592Z,1004.09
2023-05-16T02:24:21.935Z,1004.14
2023-05-16T02:25:22.294Z,1004.05
2023-05-16T02:26:22.548Z,1004.11
2023-05-16T02:27:22.936Z,1004.14
2023-05-16T02:28:23.132Z,1004.14
2023-05-16T02:29:23.519Z,1004.21
2023-05-16T02:30:23.775Z,1004.19
2023-05-16T02:31:24.105Z,1004.18
2023-05-16T02:32:24.428Z,1004.15
2023-05-16T02:33:24.702Z,1004.19
2023-05-16T02:34:24.984Z,1004.19
2023-05-16T02:35:25.447Z,1004.18
2023-05-16T02:36:25.548Z,1004.22
2023-05-16T02:37:25.844Z,1004.26
2023-05-16T02:38:26.106Z,1004.27
2023-05-16T02:39:26.358Z,1004.30
2023-05-16T02:40:26.624Z,1004.31
2023-05-16T02:41:26.918Z,1004.33
2023-05-16T02:42:27.165Z,1004.32
2023-05-16T02:43:27.429Z,1004.32
2023-05-16T02:44:27.678Z,1004.38
2023-05-16T02:45:28.294Z,1004.39
2023-05-16T02:46:28.420Z,1004.36
2023-05-16T02:47:28.703Z,1004.45
2023-05-16T02:48:28.888Z,1004.38
2023-05-16T02:49:29.158Z,1004.43
2023-05-16T02:50:29.404Z,1004.39
2023-05-16T02:51:29.797Z,1004.41
2023-05-16T02:52:30.048Z,1004.40
2023-05-16T02:53:30.420Z,1004.40
2023-05-16T02:54:30.655Z,1004.40
2023-05-16T02:55:31.037Z,1004.40
2023-05-16T02:56:31.286Z,1004.49
2023-05-16T02:57:31.577Z,1004.45
2023-05-16T02:58:31.811Z,1004.46
2023-05-16T02:59:32.077Z,1004.51
2023-05-16T03:00:32.341Z,1004.52
2023-05-16T03:01:32.782Z,1004.57
2023-05-16T03:02:33.060Z,1004.59
2023-05-16T03:03:33.396Z,1004.59
2023-05-16T03:04:33.589Z,1004.61
2023-05-16T03:05:33.974Z,1004.61
2023-05-16T03:06:34.198Z,1004.65
2023-05-16T03:07:34.551Z,1004.65
2023-05-16T03:08:34.909Z,1004.61
2023-05-16T03:09:35.160Z,1004.71
2023-05-16T03:10:35.414Z,1004.67
2023-05-16T03:11:36.893Z,1004.73
2023-05-16T03:12:35.956Z,1004.66
2023-05-16T03:13:36.322Z,1004.67
2023-05-16T03:14:36.563Z,1004.75
2023-05-16T03:15:36.950Z,1004.74
2023-05-16T03:16:37.288Z,1004.71
2023-05-16T03:17:37.647Z,1004.71
2023-05-16T03:18:37.917Z,1004.76
2023-05-16T03:19:38.133Z,1004.76
2023-05-16T03:20:38.380Z,1004.84
2023-05-16T03:21:38.759Z,1004.80
2023-05-16T03:22:39.012Z,1004.84
2023-05-16T03:23:39.368Z,1004.90
2023-05-16T03:24:39.620Z,1004.87
2023-05-16T03:25:39.978Z,1004.85
2023-05-16T03:26:40.261Z,1004.87
2023-05-16T03:27:40.494Z,1004.94
2023-05-16T03:28:40.842Z,1004.93
2023-05-16T03:29:41.210Z,1004.88
2023-05-16T03:30:41.466Z,1004.87
2023-05-16T03:31:41.813Z,1004.90
2023-05-16T03:32:42.117Z,1004.98
2023-05-16T03:33:42.369Z,1004.94
2023-05-16T03:34:42.633Z,1004.94
2023-05-16T03:35:42.905Z,1004.98
2023-05-16T03:36:43.238Z,1005.01
2023-05-16T03:37:43.606Z,1005.02
2023-05-16T03:38:43.855Z,1005.02
2023-05-16T03:39:44.236Z,1004.99
2023-05-16T03:40:44.490Z,1005.00
2023-05-16T03:41:44.867Z,1004.95
2023-05-16T03:42:45.114Z,1004.99
2023-05-16T03:43:45.485Z,1004.96
2023-05-16T03:44:45.741Z,1004.95
2023-05-16T03:45:46.267Z,1004.91
2023-05-16T03:46:46.381Z,1004.96
2023-05-16T03:47:46.713Z,1004.91
2023-05-16T03:48:46.941Z,1005.00
2023-05-16T03:49:47.326Z,1005.01
2023-05-16T03:50:47.553Z,1004.97
2023-05-16T03:51:47.925Z,1005.02
2023-05-16T03:52:48.173Z,1004.99
2023-05-16T03:53:48.529Z,1005.00
2023-05-16T03:54:48.876Z,1004.96
2023-05-16T03:55:49.284Z,1005.01
2023-05-16T03:56:49.497Z,1004.99
2023-05-16T03:57:49.746Z,1004.98
2023-05-16T03:58:50.141Z,1005.02
2023-05-16T03:59:50.418Z,1005.05
2023-05-16T04:00:50.677Z,1005.08
2023-05-16T04:01:51.113Z,1005.12
2023-05-16T04:02:51.444Z,1005.07
2023-05-16T04:03:51.707Z,1005.08
2023-05-16T04:04:51.945Z,1005.12
2023-05-16T04:05:52.220Z,1005.09
2023-05-16T04:06:52.461Z,1005.15
2023-05-16T04:07:52.733Z,1005.13
2023-05-16T04:08:52.991Z,1005.19
2023-05-16T04:09:53.258Z,1005.22
2023-05-16T04:10:53.513Z,1005.21
2023-05-16T04:11:53.900Z,1005.26
2023-05-16T04:12:54.146Z,1005.27
2023-05-16T04:13:54.608Z,1005.24
2023-05-16T04:14:54.816Z,1005.34
2023-05-16T04:15:55.207Z,1005.37
2023-05-16T04:16:55.535Z,1005.31
2023-05-16T04:17:55.853Z,1005.39
2023-05-16T04:18:56.144Z,1005.35
2023-05-16T04:19:56.389Z,1005.40
2023-05-16T04:20:56.649Z,1005.43
2023-05-16T04:21:56.925Z,1005.40
2023-05-16T04:22:57.169Z,1005.41
2023-05-16T04:23:57.538Z,1005.49
2023-05-16T04:24:57.793Z,1005.40
2023-05-16T04:25:58.083Z,1005.44
2023-05-16T04:26:58.395Z,1005.49
2023-05-16T04:27:58.647Z,1005.49
2023-05-16T04:29:00.198Z,1005.51
2023-05-16T04:29:59.321Z,1005.59
2023-05-16T04:30:59.704Z,1005.53
2023-05-16T04:32:00.361Z,1005.54
2023-05-16T04:33:00.395Z,1005.57
2023-05-16T04:34:00.821Z,1005.58
2023-05-16T04:35:00.966Z,1005.49
2023-05-16T04:36:01.344Z,1005.47
2023-05-16T04:37:01.589Z,1005.57
2023-05-16T04:38:01.948Z,1005.54
2023-05-16T04:39:02.295Z,1005.53
2023-05-16T04:40:02.658Z,1005.62
2023-05-16T04:41:03.026Z,1005.60
2023-05-16T04:42:03.414Z,1005.58
2023-05-16T04:43:03.675Z,1005.64
2023-05-16T04:44:03.933Z,1005.63
2023-05-16T04:45:04.219Z,1005.64
2023-05-16T04:46:04.603Z,1005.68
2023-05-16T04:47:04.815Z,1005.69
2023-05-16T04:48:05.302Z,1005.66
2023-05-16T04:49:05.517Z,1005.71
2023-05-16T04:50:05.919Z,1005.73
2023-05-16T04:51:06.180Z,1005.69
2023-05-16T04:52:06.446Z,1005.70
2023-05-16T04:53:06.707Z,1005.75
2023-05-16T04:54:06.952Z,1005.72
2023-05-16T04:55:07.313Z,1005.77
2023-05-16T04:56:07.700Z,1005.81
2023-05-16T04:57:07.963Z,1005.82
2023-05-16T04:58:08.220Z,1005.83
2023-05-16T04:59:08.463Z,1005.88
2023-05-16T05:00:08.831Z,1005.89
2023-05-16T05:01:09.133Z,1005.93
2023-05-16T05:02:09.488Z,1005.93
2023-05-16T05:03:09.772Z,1005.94
2023-05-16T05:04:09.967Z,1005.95
2023-05-16T05:05:10.377Z,1005.95
2023-05-16T05:06:10.541Z,1005.99
2023-05-16T05:07:10.784Z,1006.00
2023-05-16T05:08:11.178Z,1006.01
2023-05-16T05:09:11.420Z,1006.02
2023-05-16T05:10:11.784Z,1006.03
2023-05-16T05:11:12.028Z,1005.99
2023-05-16T05:12:12.426Z,1006.04
2023-05-16T05:13:12.656Z,1006.07
2023-05-16T05:14:13.023Z,1006.16
2023-05-16T05:15:13.282Z,1006.09
2023-05-16T05:16:13.691Z,1006.07
2023-05-16T05:17:13.963Z,1006.15
2023-05-16T05:18:14.449Z,1006.19
2023-05-16T05:19:14.551Z,1006.22
2023-05-16T05:20:14.793Z,1006.21
2023-05-16T05:21:15.164Z,1006.23
2023-05-16T05:22:15.449Z,1006.25
2023-05-16T05:23:15.693Z,1006.23
2023-05-16T05:24:16.076Z,1006.24
2023-05-16T05:25:16.328Z,1006.30
2023-05-16T05:26:16.692Z,1006.33
2023-05-16T05:27:16.952Z,1006.33
2023-05-16T05:28:17.329Z,1006.37
2023-05-16T05:29:17.602Z,1006.30
2023-05-16T05:30:17.873Z,1006.35
2023-05-16T05:31:18.108Z,1006.36
2023-05-16T05:32:18.488Z,1006.38
2023-05-16T05:33:19.653Z,1006.37
2023-05-16T05:34:19.098Z,1006.37
2023-05-16T05:35:19.450Z,1006.38
2023-05-16T05:36:19.806Z,1006.40
2023-05-16T05:37:20.066Z,1006.46
2023-05-16T05:38:20.317Z,1006.46
2023-05-16T05:39:20.557Z,1006.43
2023-05-16T05:40:20.925Z,1006.51
2023-05-16T05:41:21.159Z,1006.50
2023-05-16T05:42:21.530Z,1006.52
2023-05-16T05:43:21.774Z,1006.52
2023-05-16T05:44:22.198Z,1006.57
2023-05-16T05:45:22.444Z,1006.61
2023-05-16T05:46:24.123Z,1006.56
2023-05-16T05:47:23.037Z,1006.60
2023-05-16T05:48:23.236Z,1006.61
2023-05-16T05:49:23.597Z,1006.59
2023-05-16T05:50:23.869Z,1006.62
2023-05-16T05:51:24.218Z,1006.61
2023-05-16T05:52:24.573Z,1006.66
2023-05-16T05:53:24.839Z,1006.73
2023-05-16T05:54:25.155Z,1006.60
2023-05-16T05:55:32.444Z,1006.66
2023-05-16T05:56:25.764Z,1006.66
2023-05-16T05:57:26.114Z,1006.70
2023-05-16T05:58:26.353Z,1006.67
2023-05-16T05:59:26.604Z,1006.70
2023-05-16T06:00:26.958Z,1006.73
2023-05-16T06:01:27.267Z,1006.76
2023-05-16T06:02:27.641Z,1006.73
2023-05-16T06:03:27.819Z,1006.77
2023-05-16T06:04:28.162Z,1006.81
2023-05-16T06:05:28.706Z,1006.73
2023-05-16T06:06:28.669Z,1006.73
2023-05-16T06:07:29.037Z,1006.73
2023-05-16T06:08:29.266Z,1006.76
2023-05-16T06:09:29.633Z,1006.78
2023-05-16T06:10:29.887Z,1006.81
2023-05-16T06:11:30.226Z,1006.79
2023-05-16T06:12:30.479Z,1006.74
2023-05-16T06:13:30.732Z,1006.78
2023-05-16T06:14:30.949Z,1006.78
2023-05-16T06:15:31.305Z,1006.84
2023-05-16T06:16:31.670Z,1006.86
2023-05-16T06:17:32.071Z,1006.82
2023-05-16T06:18:32.314Z,1006.79
2023-05-16T06:19:32.696Z,1006.81
2023-05-16T06:20:32.945Z,1006.83
2023-05-16T06:21:33.306Z,1006.78
2023-05-16T06:22:33.554Z,1006.86
2023-05-16T06:23:33.796Z,1006.83
2023-05-16T06:24:34.165Z,1006.91
2023-05-16T06:25:34.528Z,1006.80
2023-05-16T06:26:34.770Z,1006.78
2023-05-16T06:27:35.043Z,1006.85
2023-05-16T06:28:35.323Z,1006.80
2023-05-16T06:29:35.575Z,1006.76
2023-05-16T06:30:35.801Z,1006.82
2023-05-16T06:31:36.248Z,1006.88
2023-05-16T06:32:36.467Z,1006.82
2023-05-16T06:33:36.821Z,1006.85
2023-05-16T06:34:37.061Z,1006.91
2023-05-16T06:35:37.432Z,1006.89
2023-05-16T06:36:37.727Z,1006.93
2023-05-16T06:37:38.054Z,1006.89
2023-05-16T06:38:38.280Z,1006.89
2023-05-16T06:39:39.136Z,1006.91
2023-05-16T06:40:38.951Z,1006.90
2023-05-16T06:41:39.279Z,1006.96
2023-05-16T06:42:39.669Z,1007.02
2023-05-16T06:43:39.893Z,1007.03
2023-05-16T06:44:40.137Z,1006.99
2023-05-16T06:45:40.397Z,1007.05
2023-05-16T06:46:40.644Z,1007.05
2023-05-16T06:47:40.987Z,1007.13
2023-05-16T06:48:41.207Z,1007.17
2023-05-16T06:49:41.581Z,1007.12
2023-05-16T06:50:41.813Z,1007.13
2023-05-16T06:51:42.197Z,1007.10
2023-05-16T06:52:42.450Z,1007.11
2023-05-16T06:53:42.736Z,1007.14
2023-05-16T06:54:43.017Z,1007.15
2023-05-16T06:55:43.274Z,1007.18
2023-05-16T06:56:43.504Z,1007.17
2023-05-16T06:57:43.907Z,1007.16
2023-05-16T06:58:44.163Z,1007.19
2023-05-16T06:59:44.446Z,1007.20
2023-05-16T07:00:44.718Z,1007.26
2023-05-16T07:01:45.067Z,1007.29
2023-05-16T07:02:45.301Z,1007.28
2023-05-16T07:03:45.646Z,1007.37
2023-05-16T07:04:45.784Z,1007.37
2023-05-16T07:05:46.140Z,1007.39
2023-05-16T07:06:46.374Z,1007.35
2023-05-16T07:07:46.755Z,1007.36
2023-05-16T07:08:47.002Z,1007.44
2023-05-16T07:09:47.358Z,1007.41
2023-05-16T07:10:47.598Z,1007.41
2023-05-16T07:11:47.874Z,1007.39
2023-05-16T07:12:48.136Z,1007.38
2023-05-16T07:13:48.404Z,1007.39
2023-05-16T07:14:48.674Z,1007.36
2023-05-16T07:15:48.903Z,1007.37
2023-05-16T07:16:49.176Z,1007.34
2023-05-16T07:17:49.553Z,1007.36
2023-05-16T07:18:49.799Z,1007.36
2023-05-16T07:19:50.041Z,1007.40
2023-05-16T07:20:51.347Z,1007.41
2023-05-16T07:21:50.700Z,1007.39
2023-05-16T07:22:50.943Z,1007.39
2023-05-16T07:23:51.199Z,1007.40
2023-05-16T07:24:51.466Z,1007.42
2023-05-16T07:25:51.738Z,1007.45
2023-05-16T07:26:51.964Z,1007.43
2023-05-16T07:27:52.347Z,1007.48
2023-05-16T07:28:52.589Z,1007.51
2023-05-16T07:29:52.938Z,1007.47
2023-05-16T07:30:53.176Z,1007.50
2023-05-16T07:31:53.504Z,1007.46
2023-05-16T07:32:53.840Z,1007.47
2023-05-16T07:33:54.102Z,1007.49
2023-05-16T07:34:54.327Z,1007.49
2023-05-16T07:36:07.970Z,1007.47
2023-05-16T07:36:55.940Z,1007.50
2023-05-16T07:37:55.314Z,1007.47
2023-05-16T07:38:55.565Z,1007.45
2023-05-16T07:39:55.917Z,1007.46
2023-05-16T07:40:56.131Z,1007.50
2023-05-16T07:41:56.478Z,1007.48
2023-05-16T07:42:56.862Z,1007.41
2023-05-16T07:43:57.105Z,1007.43
2023-05-16T07:44:57.500Z,1007.53
2023-05-16T07:45:57.769Z,1007.45
2023-05-16T07:46:57.982Z,1007.46
2023-05-16T07:47:58.385Z,1007.47
2023-05-16T07:48:58.457Z,1007.47
2023-05-16T07:49:58.807Z,1007.51
2023-05-16T07:50:59.042Z,1007.51
2023-05-16T07:51:59.288Z,1007.53
2023-05-16T07:52:59.522Z,1007.53
2023-05-16T07:53:59.758Z,1007.57
2023-05-16T07:55:00.012Z,1007.61
2023-05-16T07:56:00.410Z,1007.62
2023-05-16T07:57:00.591Z,1007.58
2023-05-16T07:58:00.871Z,1007.59
2023-05-16T07:59:01.133Z,1007.65
2023-05-16T08:00:01.350Z,1007.70
2023-05-16T08:01:01.571Z,1007.68
2023-05-16T08:02:02.155Z,1007.72
2023-05-16T08:03:02.250Z,1007.68
2023-05-16T08:04:02.483Z,1007.73
2023-05-16T08:05:02.700Z,1007.67
2023-05-16T08:06:03.163Z,1007.73
2023-05-16T08:07:03.328Z,1007.70
2023-05-16T08:08:03.584Z,1007.72
2023-05-16T08:09:03.816Z,1007.76
2023-05-16T08:10:04.070Z,1007.78
2023-05-16T08:11:04.270Z,1007.83
2023-05-16T08:12:04.609Z,1007.84
2023-05-16T08:13:04.956Z,1007.84
2023-05-16T08:14:05.185Z,1007.92
2023-05-16T08:15:05.452Z,1007.93
2023-05-16T08:16:05.696Z,1007.93
2023-05-16T08:17:05.936Z,1007.91
2023-05-16T08:18:06.379Z,1007.94
2023-05-16T08:19:06.648Z,1008.05
2023-05-16T08:20:06.865Z,1008.03
2023-05-16T08:21:07.089Z,1008.02
2023-05-16T08:22:07.441Z,1007.98
2023-05-16T08:23:07.708Z,1007.98
2023-05-16T08:24:07.944Z,1007.97
2023-05-16T08:25:08.169Z,1007.99
2023-05-16T08:26:08.533Z,1008.02
2023-05-16T08:27:08.890Z,1008.07
2023-05-16T08:28:09.148Z,1008.10
2023-05-16T08:29:09.370Z,1008.10
2023-05-16T08:30:09.746Z,1008.17
2023-05-16T08:31:09.999Z,1008.11
2023-05-16T08:32:10.245Z,1008.11
2023-05-16T08:33:10.586Z,1008.13
2023-05-16T08:34:10.922Z,1008.15
2023-05-16T08:35:11.197Z,1008.13
2023-05-16T08:36:11.375Z,1008.19
2023-05-16T08:37:11.619Z,1008.13
2023-05-16T08:38:11.873Z,1008.18
2023-05-16T08:39:12.147Z,1008.17
2023-05-16T08:40:12.365Z,1008.15
2023-05-16T08:41:12.605Z,1008.13
2023-05-16T08:42:12.864Z,1008.18
2023-05-16T08:43:14.036Z,1008.14
2023-05-16T08:44:13.470Z,1008.15
2023-05-16T08:45:13.938Z,1008.18
2023-05-16T08:46:13.967Z,1008.20
2023-05-16T08:47:14.304Z,1008.16
2023-05-16T08:48:14.573Z,1008.15
2023-05-16T08:49:14.811Z,1008.12
2023-05-16T08:50:15.167Z,1008.13
2023-05-16T08:51:15.389Z,1008.03
2023-05-16T08:52:15.733Z,1008.01
2023-05-16T08:53:15.978Z,1007.95
2023-05-16T08:54:16.221Z,1007.93
2023-05-16T08:55:16.461Z,1007.96
2023-05-16T08:56:16.815Z,1008.04
2023-05-16T08:57:17.053Z,1007.97
2023-05-16T08:58:17.458Z,1008.00
2023-05-16T08:59:17.703Z,1008.03
2023-05-16T09:00:17.942Z,1008.02
2023-05-16T09:01:18.261Z,1008.03
2023-05-16T09:02:18.478Z,1008.00
2023-05-16T09:03:18.727Z,1008.01
2023-05-16T09:04:18.974Z,1008.01
2023-05-16T09:05:19.179Z,1008.08
2023-05-16T09:06:19.528Z,1008.02
2023-05-16T09:07:19.771Z,1008.01
2023-05-16T09:08:20.039Z,1007.99
2023-05-16T09:09:20.283Z,1007.90
2023-05-16T09:10:20.654Z,1008.00
2023-05-16T09:11:20.885Z,1007.95
2023-05-16T09:12:21.138Z,1008.02
2023-05-16T09:13:21.364Z,1007.96
2023-05-16T09:14:21.634Z,1008.05
2023-05-16T09:15:21.856Z,1008.03
2023-05-16T09:16:22.216Z,1008.05
2023-05-16T09:17:35.868Z,1008.10
2023-05-16T09:18:23.821Z,1008.11
2023-05-16T09:19:23.012Z,1008.20
2023-05-16T09:20:23.284Z,1008.19
2023-05-16T09:21:23.570Z,1008.21
2023-05-16T09:22:23.765Z,1008.25
2023-05-16T09:23:24.020Z,1008.24
2023-05-16T09:24:24.242Z,1008.21
2023-05-16T09:26:24.748Z,1008.22
2023-05-16T09:27:24.975Z,1008.22
2023-05-16T09:28:25.225Z,1008.18
2023-05-16T09:29:25.477Z,1008.19
2023-05-16T09:30:25.725Z,1008.26
2023-05-16T09:31:25.990Z,1008.21
2023-05-16T09:32:26.327Z,1008.28
2023-05-16T09:33:26.581Z,1008.29
2023-05-16T09:34:26.808Z,1008.21
2023-05-16T09:36:27.405Z,1008.22
2023-05-16T09:37:27.636Z,1008.27
2023-05-16T09:38:28.033Z,1008.36
2023-05-16T09:39:28.254Z,1008.32
2023-05-16T09:40:28.605Z,1008.42
2023-05-16T09:41:28.867Z,1008.38
2023-05-16T09:42:29.098Z,1008.39
2023-05-16T09:43:29.466Z,1008.37
2023-05-16T09:44:29.717Z,1008.38
2023-05-16T09:45:29.935Z,1008.39
2023-05-16T09:46:30.371Z,1008.38
2023-05-16T09:47:30.616Z,1008.41
2023-05-16T09:48:30.896Z,1008.41
2023-05-16T09:49:31.148Z,1008.44
2023-05-16T09:50:31.399Z,1008.41
2023-05-16T09:51:31.667Z,1008.45
2023-05-16T09:52:31.985Z,1008.53
2023-05-16T09:53:32.239Z,1008.59
2023-05-16T09:54:32.466Z,1008.55
2023-05-16T09:55:32.733Z,1008.56
2023-05-16T09:56:32.956Z,1008.55
2023-05-16T09:57:33.226Z,1008.59
2023-05-16T09:58:33.527Z,1008.60
2023-05-16T09:59:33.732Z,1008.59
2023-05-16T10:00:34.098Z,1008.56
2023-05-16T10:01:34.313Z,1008.55
2023-05-16T10:02:34.707Z,1008.53
2023-05-16T10:03:35.064Z,1008.54
2023-05-16T10:04:35.297Z,1008.54
2023-05-16T10:05:35.514Z,1008.53
2023-05-16T10:06:35.738Z,1008.57
2023-05-16T10:07:36.087Z,1008.49
2023-05-16T10:08:36.424Z,1008.55
2023-05-16T10:09:36.631Z,1008.55
2023-05-16T10:10:36.863Z,1008.54
2023-05-16T10:11:37.233Z,1008.53
2023-05-16T10:12:37.455Z,1008.58
2023-05-16T10:13:37.858Z,1008.51
2023-05-16T10:14:37.972Z,1008.49
2023-05-16T10:15:38.324Z,1008.50
2023-05-16T10:16:38.640Z,1008.50
2023-05-16T10:17:38.866Z,1008.55
2023-05-16T10:18:39.097Z,1008.53
2023-05-16T10:19:39.336Z,1008.48
2023-05-16T10:20:39.541Z,1008.55
2023-05-16T10:21:39.898Z,1008.61
2023-05-16T10:22:40.136Z,1008.58
2023-05-16T10:23:40.493Z,1008.58
2023-05-16T10:24:40.713Z,1008.59
2023-05-16T10:25:40.978Z,1008.52
2023-05-16T10:26:41.207Z,1008.55
2023-05-16T10:27:41.560Z,1008.54
2023-05-16T10:28:41.881Z,1008.60
2023-05-16T10:29:53.454Z,1008.58
2023-05-16T10:30:43.354Z,1008.52
2023-05-16T10:31:42.631Z,1008.49
2023-05-16T10:32:43.078Z,1008.52
2023-05-16T10:33:43.130Z,1008.53
2023-05-16T10:34:43.321Z,1008.44
2023-05-16T10:35:43.672Z,1008.41
2023-05-16T10:36:43.887Z,1008.42
2023-05-16T10:37:44.241Z,1008.41
2023-05-16T10:38:44.463Z,1008.50
2023-05-16T10:39:44.802Z,1008.44
2023-05-16T10:40:45.010Z,1008.55
2023-05-16T10:41:45.248Z,1008.55
2023-05-16T10:42:45.487Z,1008.58
2023-05-16T10:43:45.739Z,1008.66
2023-05-16T10:44:54.649Z,1008.69
2023-05-16T10:45:47.215Z,1008.69
2023-05-16T10:46:46.398Z,1008.71
2023-05-16T10:47:46.737Z,1008.74
2023-05-16T10:48:47.961Z,1008.72
2023-05-16T10:49:47.184Z,1008.70
2023-05-16T10:50:47.386Z,1008.67
2023-05-16T10:51:47.731Z,1008.73
2023-05-16T10:52:47.974Z,1008.75
2023-05-16T10:53:48.275Z,1008.74
2023-05-16T10:54:48.501Z,1008.77
2023-05-16T10:55:48.732Z,1008.76
2023-05-16T10:56:48.952Z,1008.78
2023-05-16T10:57:49.189Z,1008.76
2023-05-16T10:58:49.479Z,1008.75
2023-05-16T10:59:49.712Z,1008.77
2023-05-16T11:00:50.014Z,1008.74
2023-05-16T11:01:50.328Z,1008.74
2023-05-16T11:02:50.553Z,1008.73
2023-05-16T11:03:50.863Z,1008.80
2023-05-16T11:04:51.059Z,1008.80
2023-05-16T11:05:51.391Z,1008.77
2023-05-16T11:06:51.730Z,1008.78
2023-05-16T11:07:52.053Z,1008.70
2023-05-16T11:08:52.287Z,1008.76
2023-05-16T11:09:52.509Z,1008.74
2023-05-16T11:10:52.831Z,1008.76
2023-05-16T11:11:53.517Z,1008.85
2023-05-16T11:12:53.458Z,1008.87
2023-05-16T11:13:53.838Z,1008.88
2023-05-16T11:14:54.057Z,1008.90
2023-05-16T11:15:54.285Z,1008.83
2023-05-16T11:16:54.546Z,1008.84
2023-05-16T11:17:54.793Z,1008.87
2023-05-16T11:18:55.052Z,1008.91
2023-05-16T11:19:55.289Z,1008.91
2023-05-16T11:20:55.497Z,1008.88
2023-05-16T11:21:55.839Z,1008.86
2023-05-16T11:22:56.047Z,1008.91
2023-05-16T11:23:56.396Z,1008.90
2023-05-16T11:24:56.601Z,1008.91
2023-05-16T11:25:56.929Z,1008.93
2023-05-16T11:26:57.171Z,1008.98
2023-05-16T11:27:57.378Z,1008.97
2023-05-16T11:28:57.729Z,1008.99
2023-05-16T11:29:59.180Z,1008.98
2023-05-16T11:30:58.292Z,1008.96
2023-05-16T11:31:58.546Z,1008.99
2023-05-16T11:32:58.813Z,1009.03
2023-05-16T11:33:59.159Z,1008.98
2023-05-16T11:34:59.405Z,1009.01
2023-05-16T11:36:13.927Z,1009.07
2023-05-16T11:37:00.941Z,1009.02
2023-05-16T11:38:00.295Z,1009.01
2023-05-16T11:39:00.521Z,1009.06
2023-05-16T11:40:00.961Z,1009.03
2023-05-16T11:41:01.078Z,1009.10
2023-05-16T11:42:01.409Z,1009.01
2023-05-16T11:43:01.726Z,1009.04
2023-05-16T11:44:02.077Z,1009.03
2023-05-16T11:45:02.314Z,1009.06
2023-05-16T11:46:03.586Z,1009.06
2023-05-16T11:47:02.905Z,1009.13
2023-05-16T11:48:03.212Z,1008.99
2023-05-16T11:49:03.407Z,1008.98
2023-05-16T11:50:03.630Z,1009.01
2023-05-16T11:51:03.860Z,1008.92
2023-05-16T11:52:04.074Z,1008.85
2023-05-16T11:53:04.290Z,1008.84
2023-05-16T11:54:04.667Z,1008.92
2023-05-16T11:56:02.345Z,1008.94
2023-05-16T11:57:02.501Z,1008.91
2023-05-16T11:58:02.638Z,1008.91
2023-05-16T11:59:02.844Z,1008.92
2023-05-16T12:00:02.965Z,1009.07
2023-05-16T12:01:03.107Z,1008.90
2023-05-16T12:02:03.188Z,1008.97
2023-05-16T12:03:03.403Z,1009.02
2023-05-16T12:04:03.656Z,1008.95
2023-05-16T12:05:03.550Z,1008.95
2023-05-16T12:06:03.660Z,1008.90
2023-05-16T12:07:03.757Z,1008.88
2023-05-16T12:08:03.877Z,1008.95
2023-05-16T12:09:03.988Z,1008.90
2023-05-16T12:10:04.126Z,1008.99
2023-05-16T12:11:04.224Z,1008.99
2023-05-16T12:12:04.321Z,1008.94